createdAt,value
2018-06-02T00:01:34.015Z,65.65
2018-06-02T00:04:01.549Z,65.89
2018-06-02T00:06:29.048Z,66.16
2018-06-02T00:08:56.546Z,66.25
2018-06-02T00:11:24.152Z,66.86
2018-06-02T00:13:51.593Z,67.10
2018-06-02T00:16:19.090Z,67.62
2018-06-02T00:18:46.599Z,69.51
2018-06-02T00:21:14.137Z,70.09
2018-06-02T00:23:41.681Z,70.13
2018-06-02T00:26:09.187Z,71.25
2018-06-02T00:28:36.687Z,71.05
2018-06-02T00:31:04.200Z,70.77
2018-06-02T00:33:31.714Z,71.29
2018-06-02T00:35:59.217Z,71.67
2018-06-02T00:38:26.732Z,71.77
2018-06-02T00:40:54.338Z,71.31
2018-06-02T00:43:21.839Z,71.56
2018-06-02T00:45:49.351Z,71.82
2018-06-02T00:48:16.869Z,71.72
2018-06-02T00:50:44.398Z,71.03
2018-06-02T00:53:11.909Z,70.63
2018-06-02T00:55:39.409Z,69.92
2018-06-02T00:58:06.932Z,69.67
2018-06-02T01:00:34.434Z,69.22
2018-06-02T01:03:03.384Z,68.43
2018-06-02T01:05:35.557Z,68.07
2018-06-02T01:08:03.077Z,67.90
2018-06-02T01:10:30.632Z,68.23
2018-06-02T01:12:58.144Z,67.69
2018-06-02T01:15:25.648Z,67.37
2018-06-02T01:17:53.158Z,66.61
2018-06-02T01:20:20.672Z,65.74
2018-06-02T01:22:48.172Z,64.44
2018-06-02T01:25:15.725Z,63.34
2018-06-02T01:27:43.266Z,63.51
2018-06-02T01:30:10.812Z,62.38
2018-06-02T01:32:38.326Z,62.48
2018-06-02T01:35:05.838Z,62.13
2018-06-02T01:37:33.342Z,62.34
2018-06-02T01:40:00.864Z,62.07
2018-06-02T01:42:28.381Z,61.71
2018-06-02T01:44:55.887Z,61.41
2018-06-02T01:47:23.387Z,61.22
2018-06-02T01:49:50.897Z,60.54
2018-06-02T01:52:18.399Z,60.38
2018-06-02T01:54:45.908Z,60.08
2018-06-02T01:57:13.435Z,60.01
2018-06-02T01:59:40.940Z,59.85
2018-06-02T02:02:08.453Z,59.86
2018-06-02T02:04:35.964Z,59.42
2018-06-02T02:07:03.471Z,59.56
2018-06-02T02:09:31.015Z,59.51
2018-06-02T02:11:58.537Z,59.67
2018-06-02T02:14:26.052Z,59.67
2018-06-02T02:16:53.571Z,59.99
2018-06-02T02:19:21.120Z,60.24
2018-06-02T02:21:48.620Z,60.26
2018-06-02T02:24:16.165Z,60.32
2018-06-02T02:26:43.684Z,60.47
2018-06-02T02:29:11.220Z,60.55
2018-06-02T02:31:38.723Z,60.63
2018-06-02T02:34:06.236Z,60.83
2018-06-02T02:36:33.779Z,61.01
2018-06-02T02:39:01.286Z,61.24
2018-06-02T02:41:28.797Z,61.50
2018-06-02T02:43:56.311Z,61.63
2018-06-02T02:46:23.848Z,61.64
2018-06-02T02:48:51.361Z,61.68
2018-06-02T02:51:18.871Z,61.60
2018-06-02T02:53:46.448Z,61.28
2018-06-02T02:56:13.952Z,61.46
2018-06-02T02:58:41.496Z,61.35
2018-06-02T03:01:09.040Z,61.35
2018-06-02T03:03:36.576Z,61.52
2018-06-02T03:06:04.110Z,61.28
2018-06-02T03:08:31.664Z,61.29
2018-06-02T03:10:59.183Z,61.48
2018-06-02T03:13:26.687Z,61.44
2018-06-02T03:15:54.261Z,61.42
2018-06-02T03:18:21.771Z,61.34
2018-06-02T03:20:49.266Z,61.48
2018-06-02T03:23:16.776Z,61.40
2018-06-02T03:25:44.288Z,61.62
2018-06-02T03:28:11.819Z,61.56
2018-06-02T03:30:39.366Z,61.50
2018-06-02T03:33:06.888Z,61.35
2018-06-02T03:35:34.384Z,61.16
2018-06-02T03:38:01.885Z,60.95
2018-06-02T03:40:29.418Z,60.86
2018-06-02T03:42:56.923Z,60.89
2018-06-02T03:45:24.445Z,60.76
2018-06-02T03:47:51.961Z,60.94
2018-06-02T03:50:19.482Z,60.71
2018-06-02T03:52:46.977Z,60.63
2018-06-02T03:55:14.515Z,60.43
2018-06-02T03:57:42.023Z,60.51
2018-06-02T04:00:09.579Z,60.58
2018-06-02T04:02:37.087Z,60.69
2018-06-02T04:05:04.587Z,60.94
2018-06-02T04:07:32.078Z,60.76
2018-06-02T04:09:59.587Z,61.05
2018-06-02T04:12:27.094Z,60.81
2018-06-02T04:14:54.636Z,61.02
2018-06-02T04:17:22.136Z,61.26
2018-06-02T04:19:49.638Z,60.70
2018-06-02T04:22:17.135Z,60.84
2018-06-02T04:24:44.627Z,60.72
2018-06-02T04:27:12.123Z,60.38
2018-06-02T04:29:39.623Z,60.02
2018-06-02T04:32:07.160Z,59.75
2018-06-02T04:34:34.658Z,59.61
2018-06-02T04:37:02.161Z,59.65
2018-06-02T04:39:29.672Z,59.72
2018-06-02T04:41:57.166Z,60.24
2018-06-02T04:44:24.658Z,60.14
2018-06-02T04:46:52.171Z,59.96
2018-06-02T04:49:19.671Z,59.74
2018-06-02T04:51:47.184Z,59.49
2018-06-02T04:54:14.685Z,59.48
2018-06-02T04:56:43.018Z,59.73
2018-06-02T04:59:10.530Z,59.34
2018-06-02T05:01:38.031Z,58.29
2018-06-02T05:04:05.538Z,58.39
2018-06-02T05:06:33.039Z,57.91
2018-06-02T05:09:00.566Z,57.55
2018-06-02T05:11:28.065Z,56.41
2018-06-02T05:13:55.579Z,56.02
2018-06-02T05:16:23.124Z,54.26
2018-06-02T05:18:50.620Z,53.06
2018-06-02T05:21:18.135Z,52.15
2018-06-02T05:23:45.644Z,50.71
2018-06-02T05:26:13.184Z,49.66
2018-06-02T05:28:40.688Z,50.03
2018-06-02T05:31:08.200Z,48.78
2018-06-02T05:33:35.706Z,48.72
2018-06-02T05:36:03.213Z,48.52
2018-06-02T05:38:30.719Z,47.69
2018-06-02T05:40:58.229Z,46.69
2018-06-02T05:43:25.738Z,46.21
2018-06-02T05:45:53.282Z,45.46
2018-06-02T05:48:20.799Z,45.47
2018-06-02T05:50:48.330Z,44.52
2018-06-02T05:53:15.842Z,43.78
2018-06-02T05:55:43.346Z,43.66
2018-06-02T05:58:10.895Z,43.06
2018-06-02T06:00:38.449Z,41.32
2018-06-02T06:03:05.950Z,42.41
2018-06-02T06:05:33.466Z,42.24
2018-06-02T06:08:00.981Z,41.98
2018-06-02T06:10:28.479Z,40.68
2018-06-02T06:12:55.974Z,39.93
2018-06-02T06:15:23.466Z,39.44
2018-06-02T06:17:51.012Z,38.86
2018-06-02T06:20:18.536Z,38.79
2018-06-02T06:22:46.084Z,38.92
2018-06-02T06:25:13.592Z,38.45
2018-06-02T06:27:41.148Z,37.68
2018-06-02T06:30:08.695Z,36.72
2018-06-02T06:32:36.191Z,36.85
2018-06-02T06:35:03.744Z,37.64
2018-06-02T06:37:31.254Z,37.15
2018-06-02T06:39:58.774Z,36.73
2018-06-02T06:42:26.378Z,35.38
2018-06-02T06:44:53.913Z,36.72
2018-06-02T06:47:22.536Z,35.99
2018-06-02T06:49:50.083Z,35.15
2018-06-02T06:52:17.590Z,34.57
2018-06-02T06:54:45.098Z,35.37
2018-06-02T06:57:12.621Z,34.91
2018-06-02T06:59:40.135Z,34.64
2018-06-02T07:02:07.635Z,34.43
2018-06-02T07:04:35.194Z,34.26
2018-06-02T07:07:02.745Z,33.80
2018-06-02T07:09:30.296Z,32.09
2018-06-02T07:11:57.842Z,32.33
2018-06-02T07:14:25.341Z,33.67
2018-06-02T07:16:52.857Z,33.28
2018-06-02T07:19:20.372Z,32.14
2018-06-02T07:21:47.942Z,32.74
2018-06-02T07:24:15.451Z,32.63
2018-06-02T07:26:42.964Z,32.22
2018-06-02T07:29:10.467Z,31.93
2018-06-02T07:31:37.971Z,32.30
2018-06-02T07:34:05.491Z,32.02
2018-06-02T07:36:33.115Z,31.77
2018-06-02T07:39:00.722Z,31.55
2018-06-02T07:41:28.251Z,30.65
2018-06-02T07:43:55.778Z,30.84
2018-06-02T07:46:23.306Z,31.22
2018-06-02T07:48:50.973Z,31.60
2018-06-02T07:51:18.502Z,31.67
2018-06-02T07:53:46.023Z,31.58
2018-06-02T07:56:13.532Z,31.44
2018-06-02T07:58:41.295Z,31.63
2018-06-02T08:01:09.172Z,31.82
2018-06-02T08:03:36.692Z,30.91
2018-06-02T08:06:04.239Z,31.25
2018-06-02T08:08:31.831Z,31.56
2018-06-02T08:10:59.281Z,31.32
2018-06-02T08:13:26.822Z,30.19
2018-06-02T08:15:54.329Z,29.66
2018-06-02T08:18:21.835Z,29.13
2018-06-02T08:20:49.349Z,28.94
2018-06-02T08:23:16.888Z,28.75
2018-06-02T08:25:44.633Z,29.45
2018-06-02T08:28:12.489Z,29.32
2018-06-02T08:30:40.050Z,29.57
2018-06-02T08:33:08.215Z,29.55
2018-06-02T08:35:36.522Z,28.96
2018-06-02T08:38:04.114Z,29.17
2018-06-02T08:40:31.755Z,29.15
2018-06-02T08:42:59.307Z,28.72
2018-06-02T08:45:26.867Z,28.45
2018-06-02T08:47:54.623Z,28.12
2018-06-02T08:50:22.140Z,27.97
2018-06-02T08:52:49.665Z,28.68
2018-06-02T08:55:17.171Z,28.09
2018-06-02T08:57:44.674Z,27.04
2018-06-02T09:00:12.179Z,27.66
2018-06-02T09:02:39.680Z,28.32
2018-06-02T09:05:07.884Z,28.59
2018-06-02T09:07:35.392Z,28.18
2018-06-02T09:10:02.899Z,27.65
2018-06-02T09:12:39.861Z,27.98
2018-06-02T09:15:07.657Z,27.41
2018-06-02T09:17:35.171Z,25.98
2018-06-02T09:20:02.680Z,25.82
2018-06-02T09:22:30.253Z,26.65
2018-06-02T09:24:57.799Z,26.47
2018-06-02T09:27:25.387Z,26.55
2018-06-02T09:29:52.901Z,27.10
2018-06-02T09:32:20.416Z,25.87
2018-06-02T09:34:48.201Z,25.21
2018-06-02T09:37:15.690Z,24.69
2018-06-02T09:39:43.194Z,24.27
2018-06-02T09:42:10.711Z,25.27
2018-06-02T09:44:39.592Z,24.98
2018-06-02T09:47:07.164Z,26.15
2018-06-02T09:49:34.695Z,26.84
2018-06-02T09:52:03.167Z,25.93
2018-06-02T09:54:47.353Z,25.66
2018-06-02T09:57:15.193Z,25.66
2018-06-02T09:59:43.219Z,24.38
2018-06-02T10:02:17.725Z,22.34
2018-06-02T10:04:45.478Z,21.60
2018-06-02T10:07:13.107Z,22.35
2018-06-02T10:09:40.880Z,22.53
2018-06-02T10:12:08.996Z,22.54
2018-06-02T10:14:37.619Z,22.92
2018-06-02T10:17:05.200Z,21.66
2018-06-02T10:19:32.708Z,21.66
2018-06-02T10:22:00.215Z,22.61
2018-06-02T10:24:27.735Z,22.01
2018-06-02T10:26:55.236Z,22.95
2018-06-02T10:29:22.759Z,22.98
2018-06-02T10:31:50.459Z,24.08
2018-06-02T10:34:18.033Z,23.32
2018-06-02T10:36:53.903Z,23.35
2018-06-02T10:39:21.446Z,24.49
2018-06-02T10:42:04.344Z,23.84
2018-06-02T10:44:32.003Z,22.34
2018-06-02T10:47:02.620Z,21.35
2018-06-02T10:49:30.149Z,20.93
2018-06-02T10:51:57.747Z,20.31
2018-06-02T10:54:25.315Z,19.48
2018-06-02T10:56:52.812Z,19.65
2018-06-02T10:59:20.318Z,20.24
2018-06-02T11:01:47.937Z,20.14
2018-06-02T11:04:15.454Z,19.38
2018-06-02T11:06:42.976Z,20.13
2018-06-02T11:09:11.140Z,19.84
2018-06-02T11:11:38.687Z,18.63
2018-06-02T11:14:06.270Z,18.57
2018-06-02T11:16:33.785Z,19.62
2018-06-02T11:19:01.285Z,19.73
2018-06-02T11:21:28.803Z,19.80
2018-06-02T11:23:56.407Z,19.76
2018-06-02T11:26:23.960Z,20.52
2018-06-02T11:28:51.476Z,20.93
2018-06-02T11:31:19.031Z,20.98
2018-06-02T11:33:46.583Z,21.99
2018-06-02T11:36:14.203Z,22.07
2018-06-02T11:38:41.844Z,21.26
2018-06-02T11:41:09.384Z,20.15
2018-06-02T11:43:36.931Z,20.80
2018-06-02T11:46:04.483Z,20.16
2018-06-02T11:48:32.047Z,20.27
2018-06-02T11:50:59.580Z,20.53
2018-06-02T11:53:27.097Z,20.18
2018-06-02T11:55:55.019Z,20.47
2018-06-02T11:58:22.547Z,21.38
2018-06-02T12:00:50.079Z,20.82
2018-06-02T12:03:17.586Z,21.62
2018-06-02T12:05:45.146Z,21.61
2018-06-02T12:08:12.664Z,21.64
2018-06-02T12:10:40.214Z,21.47
2018-06-02T12:13:07.860Z,21.31
2018-06-02T12:15:35.639Z,21.25
2018-06-02T12:18:03.165Z,21.24
2018-06-02T12:20:31.104Z,22.27
2018-06-02T12:22:59.101Z,21.94
2018-06-02T12:25:26.673Z,21.67
2018-06-02T12:27:54.205Z,21.59
2018-06-02T12:30:21.742Z,22.50
2018-06-02T12:32:49.302Z,23.59
2018-06-02T12:35:16.841Z,24.29
2018-06-02T12:37:44.393Z,25.03
2018-06-02T12:40:11.967Z,25.21
2018-06-02T12:42:39.968Z,24.50
2018-06-02T12:45:07.489Z,24.59
2018-06-02T12:47:35.010Z,24.59
2018-06-02T12:50:02.527Z,24.06
2018-06-02T12:52:30.036Z,26.00
2018-06-02T12:54:57.575Z,26.91
2018-06-02T12:57:25.088Z,27.42
2018-06-02T12:59:52.618Z,27.54
2018-06-02T13:02:20.127Z,28.66
2018-06-02T13:04:47.635Z,27.94
2018-06-02T13:07:15.160Z,27.85
2018-06-02T13:09:42.663Z,28.17
2018-06-02T13:12:11.035Z,28.78
2018-06-02T13:14:38.641Z,29.48
2018-06-02T13:17:07.356Z,29.22
2018-06-02T13:19:34.995Z,29.05
2018-06-02T13:22:02.509Z,29.44
2018-06-02T13:24:30.033Z,26.14
2018-06-02T13:27:00.481Z,26.95
2018-06-02T13:29:38.661Z,29.36
2018-06-02T13:32:06.220Z,30.10
2018-06-02T13:34:33.727Z,30.47
2018-06-02T13:37:01.249Z,30.52
2018-06-02T13:39:36.168Z,30.01
2018-06-02T13:42:03.800Z,33.09
2018-06-02T13:44:31.463Z,34.50
2018-06-02T13:46:59.029Z,34.39
2018-06-02T13:49:26.554Z,34.30
2018-06-02T13:51:54.124Z,34.87
2018-06-02T13:54:21.664Z,35.14
2018-06-02T13:56:49.212Z,35.54
2018-06-02T13:59:16.717Z,35.68
2018-06-02T14:01:44.239Z,35.92
2018-06-02T14:04:11.745Z,36.68
2018-06-02T14:06:39.241Z,35.71
2018-06-02T14:09:06.755Z,36.75
2018-06-02T14:11:34.267Z,35.85
2018-06-02T14:14:04.520Z,36.40
2018-06-02T14:16:35.822Z,36.75
2018-06-02T14:19:03.456Z,37.30
2018-06-02T14:21:31.003Z,37.16
2018-06-02T14:23:58.544Z,36.92
2018-06-02T14:26:26.291Z,36.21
2018-06-02T14:28:53.838Z,32.35
2018-06-02T14:31:21.363Z,32.02
2018-06-02T14:33:48.904Z,31.74
2018-06-02T14:36:26.089Z,32.31
2018-06-02T14:38:53.891Z,31.05
2018-06-02T14:41:21.413Z,31.76
2018-06-02T14:43:48.916Z,32.64
2018-06-02T14:46:16.419Z,32.96
2018-06-02T14:48:43.935Z,33.51
2018-06-02T14:51:11.488Z,35.95
2018-06-02T14:53:38.990Z,37.00
2018-06-02T14:56:06.535Z,38.02
2018-06-02T14:58:34.043Z,37.78
2018-06-02T15:01:01.564Z,37.99
2018-06-02T15:03:29.070Z,38.69
2018-06-02T15:05:56.614Z,38.63
2018-06-02T15:08:24.111Z,38.01
2018-06-02T15:10:51.610Z,38.05
2018-06-02T15:13:19.149Z,38.32
2018-06-02T15:15:46.674Z,38.44
2018-06-02T15:18:14.175Z,39.42
2018-06-02T15:20:41.675Z,39.79
2018-06-02T15:23:09.187Z,40.61
2018-06-02T15:25:36.938Z,41.28
2018-06-02T15:28:04.473Z,42.80
2018-06-02T15:30:32.043Z,42.75
2018-06-02T15:32:59.668Z,43.18
2018-06-02T15:35:27.172Z,43.38
2018-06-02T15:37:54.731Z,43.45
2018-06-02T15:40:22.290Z,43.61
2018-06-02T15:42:49.801Z,43.59
2018-06-02T15:45:17.291Z,43.06
2018-06-02T15:47:44.845Z,44.73
2018-06-02T15:50:12.378Z,47.60
2018-06-02T15:52:39.910Z,50.71
2018-06-02T15:55:07.832Z,52.51
2018-06-02T15:57:35.340Z,52.79
2018-06-02T16:00:04.086Z,53.00
2018-06-02T16:02:31.583Z,52.84
2018-06-02T16:04:59.085Z,53.86
2018-06-02T16:07:26.648Z,54.45
2018-06-02T16:09:54.155Z,56.51
2018-06-02T16:12:21.651Z,57.88
2018-06-02T16:14:49.138Z,59.09
2018-06-02T16:17:16.635Z,60.76
2018-06-02T16:19:44.156Z,59.99
2018-06-02T16:22:11.655Z,62.24
2018-06-02T16:24:39.212Z,62.63
2018-06-02T16:27:06.715Z,62.94
2018-06-02T16:29:34.225Z,62.03
2018-06-02T16:32:02.037Z,61.90
2018-06-02T16:34:29.551Z,62.36
2018-06-02T16:36:57.046Z,62.58
2018-06-02T16:39:24.548Z,62.87
2018-06-02T16:41:52.056Z,63.27
2018-06-02T16:44:19.564Z,62.59
2018-06-02T16:46:47.087Z,61.79
2018-06-02T16:49:14.610Z,62.87
2018-06-02T16:51:42.119Z,62.01
2018-06-02T16:54:12.769Z,63.63
2018-06-02T16:56:40.291Z,63.51
2018-06-02T16:59:07.806Z,61.65
2018-06-02T17:01:35.316Z,61.24
2018-06-02T17:04:02.833Z,61.31
2018-06-02T17:06:30.351Z,61.90
2018-06-02T17:08:57.897Z,61.91
2018-06-02T17:11:25.406Z,61.14
2018-06-02T17:13:52.967Z,60.73
2018-06-02T17:16:22.616Z,60.62
2018-06-02T17:18:50.192Z,61.29
2018-06-02T17:21:21.192Z,59.63
2018-06-02T17:23:48.695Z,61.30
2018-06-02T17:26:16.268Z,59.08
2018-06-02T17:28:43.781Z,58.53
2018-06-02T17:31:11.383Z,60.16
2018-06-02T17:33:38.900Z,60.82
2018-06-02T17:36:06.414Z,61.99
2018-06-02T17:38:33.915Z,62.37
2018-06-02T17:41:01.419Z,62.77
2018-06-02T17:43:28.917Z,62.50
2018-06-02T17:45:56.471Z,62.13
2018-06-02T17:48:23.983Z,62.82
2018-06-02T17:50:51.502Z,63.56
2018-06-02T17:53:19.008Z,63.58
2018-06-02T17:55:46.569Z,63.99
2018-06-02T17:58:14.077Z,64.20
2018-06-02T18:00:41.639Z,64.59
2018-06-02T18:03:09.158Z,63.72
2018-06-02T18:05:36.696Z,63.96
2018-06-02T18:08:04.203Z,63.57
2018-06-02T18:10:31.717Z,63.85
2018-06-02T18:12:59.230Z,63.72
2018-06-02T18:15:26.727Z,63.43
2018-06-02T18:17:54.308Z,63.24
2018-06-02T18:20:21.882Z,61.90
2018-06-02T18:22:49.398Z,61.58
2018-06-02T18:25:16.905Z,61.11
2018-06-02T18:27:44.443Z,60.72
2018-06-02T18:30:11.984Z,60.24
2018-06-02T18:32:39.591Z,60.13
2018-06-02T18:35:07.097Z,59.78
2018-06-02T18:37:34.602Z,59.74
2018-06-02T18:40:02.181Z,59.78
2018-06-02T18:42:29.696Z,59.74
2018-06-02T18:44:57.207Z,59.70
2018-06-02T18:47:24.813Z,59.54
2018-06-02T18:49:52.363Z,60.36
2018-06-02T18:52:19.892Z,62.75
2018-06-02T18:54:47.436Z,65.49
2018-06-02T18:57:15.002Z,66.76
2018-06-02T18:59:42.509Z,67.65
2018-06-02T19:02:10.009Z,68.54
2018-06-02T19:04:37.524Z,69.55
2018-06-02T19:07:05.118Z,70.76
2018-06-02T19:09:32.643Z,71.70
2018-06-02T19:12:00.213Z,72.28
2018-06-02T19:14:27.868Z,72.80
2018-06-02T19:16:55.473Z,73.05
2018-06-02T19:19:23.017Z,73.30
2018-06-02T19:21:50.583Z,73.79
2018-06-02T19:24:18.113Z,74.22
2018-06-02T19:26:45.659Z,74.40
2018-06-02T19:29:13.159Z,74.39
2018-06-02T19:31:40.733Z,74.47
2018-06-02T19:34:08.254Z,74.79
2018-06-02T19:36:35.980Z,74.79
2018-06-02T19:39:03.667Z,74.90
2018-06-02T19:41:31.295Z,75.17
2018-06-02T19:43:59.643Z,75.22
2018-06-02T19:46:29.030Z,75.63
2018-06-02T19:48:56.596Z,75.22
2018-06-02T19:51:24.137Z,74.51
2018-06-02T19:53:51.651Z,74.02
2018-06-02T19:56:19.147Z,74.36
2018-06-02T19:58:46.652Z,74.67
2018-06-02T20:01:14.157Z,74.52
2018-06-02T20:03:41.672Z,74.16
2018-06-02T20:06:09.198Z,74.00
2018-06-02T20:08:36.708Z,73.93
2018-06-02T20:11:04.277Z,73.63
2018-06-02T20:13:31.786Z,73.79
2018-06-02T20:15:59.284Z,73.88
2018-06-02T20:18:26.868Z,73.73
2018-06-02T20:20:54.367Z,73.62
2018-06-02T20:23:22.464Z,73.22
2018-06-02T20:25:49.967Z,72.81
2018-06-02T20:28:17.582Z,72.71
2018-06-02T20:30:45.151Z,72.57
2018-06-02T20:33:12.692Z,71.90
2018-06-02T20:35:40.194Z,71.47
2018-06-02T20:38:07.854Z,71.68
2018-06-02T20:40:35.472Z,72.01
2018-06-02T20:43:03.117Z,72.14
2018-06-02T20:45:30.892Z,72.71
2018-06-02T20:47:58.520Z,72.26
2018-06-02T20:50:26.076Z,72.23
2018-06-02T20:52:53.605Z,72.56
2018-06-02T20:55:21.179Z,72.97
2018-06-02T20:57:49.496Z,73.34
2018-06-02T21:00:17.044Z,73.52
2018-06-02T21:02:44.568Z,73.76
2018-06-02T21:05:12.213Z,73.69
2018-06-02T21:07:39.718Z,73.95
2018-06-02T21:10:07.249Z,73.89
2018-06-02T21:12:34.785Z,73.74
2018-06-02T21:15:02.343Z,73.59
2018-06-02T21:17:29.881Z,73.35
2018-06-02T21:19:57.423Z,74.03
2018-06-02T21:22:24.957Z,74.55
2018-06-02T21:24:52.502Z,74.75
2018-06-02T21:27:20.029Z,74.44
2018-06-02T21:29:48.322Z,74.54
2018-06-02T21:32:15.861Z,74.72
2018-06-02T21:34:43.387Z,75.06
2018-06-02T21:37:10.927Z,75.34
2018-06-02T21:39:38.566Z,75.24
2018-06-02T21:42:06.091Z,75.32
2018-06-02T21:44:33.617Z,75.23
2018-06-02T21:47:01.155Z,75.03
2018-06-02T21:49:28.690Z,75.94
2018-06-02T21:51:56.761Z,75.19
2018-06-02T21:54:24.407Z,75.25
2018-06-02T21:56:51.948Z,75.00
2018-06-02T21:59:19.474Z,74.73
2018-06-02T22:01:47.002Z,73.99
2018-06-02T22:04:14.572Z,73.17
2018-06-02T22:06:42.166Z,72.73
2018-06-02T22:09:09.727Z,73.29
2018-06-02T22:11:37.315Z,73.61
2018-06-02T22:14:04.851Z,74.14
2018-06-02T22:16:32.382Z,74.82
2018-06-02T22:18:59.958Z,74.83
2018-06-02T22:21:27.500Z,74.34
2018-06-02T22:23:55.056Z,74.31
2018-06-02T22:26:23.529Z,74.30
2018-06-02T22:28:51.077Z,74.71
2018-06-02T22:31:18.662Z,74.52
2018-06-02T22:33:46.222Z,75.14
2018-06-02T22:36:13.823Z,75.72
2018-06-02T22:38:41.517Z,76.25
2018-06-02T22:41:09.097Z,76.88
2018-06-02T22:43:36.625Z,77.47
2018-06-02T22:46:04.150Z,77.69
2018-06-02T22:48:31.736Z,77.98
2018-06-02T22:50:59.271Z,78.53
2018-06-02T22:53:26.873Z,78.91
2018-06-02T22:55:54.402Z,78.55
2018-06-02T22:58:21.934Z,78.67
2018-06-02T23:00:49.522Z,79.09
2018-06-02T23:03:17.069Z,79.14
2018-06-02T23:05:44.608Z,79.36
2018-06-02T23:08:12.159Z,79.42
2018-06-02T23:10:39.690Z,79.87
2018-06-02T23:13:07.266Z,80.08
2018-06-02T23:15:34.807Z,80.37
2018-06-02T23:18:02.391Z,80.83
2018-06-02T23:20:29.911Z,80.90
2018-06-02T23:22:57.447Z,80.96
2018-06-02T23:25:24.979Z,81.30
2018-06-02T23:27:52.555Z,81.41
2018-06-02T23:30:20.138Z,81.43
2018-06-02T23:32:47.684Z,81.59
2018-06-02T23:35:15.222Z,81.52
2018-06-02T23:37:42.762Z,81.49
2018-06-02T23:40:10.306Z,81.74
2018-06-02T23:42:37.832Z,81.34
2018-06-02T23:45:05.372Z,81.31
2018-06-02T23:47:32.911Z,81.39
2018-06-02T23:50:39.267Z,81.62
2018-06-02T23:53:07.927Z,82.01
2018-06-02T23:55:36.590Z,81.32
2018-06-02T23:58:05.280Z,81.67
